createdAt,value
2023-01-18T00:02:10.946Z,98688.34
2023-01-18T00:04:39.794Z,98689.16
2023-01-18T00:07:07.228Z,98681.50
2023-01-18T00:09:34.674Z,98684.75
2023-01-18T00:12:02.094Z,98671.22
2023-01-18T00:14:29.582Z,98665.31
2023-01-18T00:16:56.994Z,98670.25
2023-01-18T00:19:24.417Z,98667.63
2023-01-18T00:21:55.694Z,98661.06
2023-01-18T00:24:23.781Z,98649.22
2023-01-18T00:26:51.401Z,98653.44
2023-01-18T00:29:19.184Z,98651.78
2023-01-18T00:31:48.145Z,98658.53
2023-01-18T00:34:15.758Z,98655.13
2023-01-18T00:36:43.194Z,98655.06
2023-01-18T00:39:12.916Z,98659.25
2023-01-18T00:42:00.330Z,98661.69
2023-01-18T00:44:26.794Z,98670.16
2023-01-18T00:46:55.999Z,98661.72
2023-01-18T00:49:24.755Z,98665.91
2023-01-18T00:51:52.360Z,98668.53
2023-01-18T00:54:21.113Z,98668.34
2023-01-18T00:56:48.535Z,98669.38
2023-01-18T00:59:15.928Z,98661.75
2023-01-18T01:01:44.908Z,98672.78
2023-01-18T01:04:29.934Z,98666.94
2023-01-18T01:06:57.356Z,98672.91
2023-01-18T01:09:27.923Z,98675.44
2023-01-18T01:12:13.195Z,98695.81
2023-01-18T01:15:00.482Z,98699.78
2023-01-18T01:17:47.361Z,98689.75
2023-01-18T01:20:32.554Z,98698.28
2023-01-18T01:23:26.996Z,98705.00
2023-01-18T01:26:07.649Z,98710.00
2023-01-18T01:28:35.597Z,98720.06
2023-01-18T01:31:04.216Z,98726.91
2023-01-18T01:33:32.954Z,98729.66
2023-01-18T01:36:02.094Z,98730.47
2023-01-18T01:38:30.337Z,98737.22
2023-01-18T01:41:01.363Z,98746.56
2023-01-18T01:43:40.591Z,98745.75
2023-01-18T01:46:18.602Z,98745.00
2023-01-18T01:48:48.527Z,98744.03
2023-01-18T01:51:17.743Z,98740.63
2023-01-18T01:53:46.016Z,98747.50
2023-01-18T01:56:14.877Z,98742.44
2023-01-18T01:58:43.767Z,98752.63
2023-01-18T02:01:11.218Z,98750.84
2023-01-18T02:03:42.559Z,98759.34
2023-01-18T02:06:16.355Z,98759.16
2023-01-18T02:08:47.294Z,98761.09
2023-01-18T02:11:16.169Z,98763.56
2023-01-18T02:13:43.643Z,98765.25
2023-01-18T02:16:19.558Z,98766.03
2023-01-18T02:18:56.988Z,98771.97
2023-01-18T02:21:32.296Z,98770.38
2023-01-18T02:24:39.000Z,98764.31
2023-01-18T02:27:14.477Z,98763.53
2023-01-18T02:29:56.437Z,98767.97
2023-01-18T02:32:37.487Z,98761.09
2023-01-18T02:35:10.051Z,98767.97
2023-01-18T02:37:45.450Z,98760.28
2023-01-18T02:40:20.204Z,98757.78
2023-01-18T02:43:07.263Z,98754.28
2023-01-18T02:45:59.354Z,98749.94
2023-01-18T02:48:34.118Z,98758.53
2023-01-18T02:51:01.588Z,98761.13
2023-01-18T02:53:29.189Z,98754.31
2023-01-18T02:56:00.974Z,98764.56
2023-01-18T02:58:32.455Z,98764.53
2023-01-18T03:01:06.449Z,98768.75
2023-01-18T03:03:35.463Z,98762.78
2023-01-18T03:06:06.526Z,98764.38
2023-01-18T03:08:39.549Z,98776.22
2023-01-18T03:11:11.324Z,98777.88
2023-01-18T03:13:51.033Z,98772.88
2023-01-18T03:16:23.657Z,98767.91
2023-01-18T03:19:01.718Z,98765.25
2023-01-18T03:21:39.671Z,98766.19
2023-01-18T03:24:08.684Z,98767.94
2023-01-18T03:26:40.954Z,98769.56
2023-01-18T03:29:27.140Z,98766.25
2023-01-18T03:32:19.610Z,98772.19
2023-01-18T03:34:53.627Z,98762.00
2023-01-18T03:37:27.653Z,98764.56
2023-01-18T03:39:59.144Z,98782.38
2023-01-18T03:42:30.165Z,98784.84
2023-01-18T03:45:05.819Z,98771.34
2023-01-18T03:47:34.971Z,98779.75
2023-01-18T03:50:02.583Z,98778.06
2023-01-18T03:52:37.593Z,98788.19
2023-01-18T03:55:11.768Z,98786.63
2023-01-18T03:57:43.630Z,98778.16
2023-01-18T04:00:13.310Z,98782.47
2023-01-18T04:02:45.187Z,98782.41
2023-01-18T04:05:13.175Z,98779.72
2023-01-18T04:07:40.633Z,98782.22
2023-01-18T04:10:09.346Z,98778.06
2023-01-18T04:12:36.820Z,98774.03
2023-01-18T04:15:04.930Z,98774.06
2023-01-18T04:17:32.330Z,98775.72
2023-01-18T04:20:01.082Z,98755.38
2023-01-18T04:22:28.490Z,98761.28
2023-01-18T04:24:55.929Z,98769.75
2023-01-18T04:27:25.051Z,98775.78
2023-01-18T04:29:52.747Z,98778.28
2023-01-18T04:32:20.536Z,98777.47
2023-01-18T04:34:47.945Z,98780.09
2023-01-18T04:37:16.678Z,98776.66
2023-01-18T04:39:44.111Z,98771.47
2023-01-18T04:42:11.519Z,98770.47
2023-01-18T04:44:38.973Z,98765.44
2023-01-18T04:47:06.382Z,98768.81
2023-01-18T04:49:33.999Z,98773.09
2023-01-18T04:52:01.434Z,98774.88
2023-01-18T04:54:30.483Z,98771.47
2023-01-18T04:56:57.892Z,98779.09
2023-01-18T04:59:25.331Z,98790.16
2023-01-18T05:01:52.801Z,98790.09
2023-01-18T05:04:20.602Z,98785.06
2023-01-18T05:06:49.141Z,98786.66
2023-01-18T05:09:16.632Z,98790.97
2023-01-18T05:11:45.349Z,98791.69
2023-01-18T05:14:12.758Z,98801.81
2023-01-18T05:16:40.279Z,98811.63
2023-01-18T05:19:07.816Z,98809.25
2023-01-18T05:21:35.223Z,98812.47
2023-01-18T05:24:02.649Z,98812.13
2023-01-18T05:26:30.322Z,98826.53
2023-01-18T05:28:59.339Z,98831.00
2023-01-18T05:31:26.837Z,98827.28
2023-01-18T05:33:54.318Z,98829.44
2023-01-18T05:36:21.787Z,98830.19
2023-01-18T05:38:49.166Z,98837.00
2023-01-18T05:41:16.662Z,98843.91
2023-01-18T05:43:44.129Z,98842.84
2023-01-18T05:46:12.971Z,98844.44
2023-01-18T05:48:40.434Z,98846.97
2023-01-18T05:51:09.716Z,98847.41
2023-01-18T05:53:37.142Z,98857.56
2023-01-18T05:56:06.973Z,98853.50
2023-01-18T05:58:35.313Z,98850.16
2023-01-18T06:01:02.819Z,98849.28
2023-01-18T06:03:31.563Z,98838.41
2023-01-18T06:05:59.227Z,98849.41
2023-01-18T06:08:26.646Z,98844.66
2023-01-18T06:10:55.123Z,98848.97
2023-01-18T06:13:22.634Z,98852.22
2023-01-18T06:15:50.370Z,98850.09
2023-01-18T06:18:17.758Z,98854.41
2023-01-18T06:20:46.517Z,98848.31
2023-01-18T06:23:13.907Z,98857.56
2023-01-18T06:25:41.289Z,98868.88
2023-01-18T06:28:08.691Z,98870.91
2023-01-18T06:30:36.062Z,98872.94
2023-01-18T06:33:06.815Z,98877.31
2023-01-18T06:35:34.524Z,98879.94
2023-01-18T06:38:04.643Z,98897.97
2023-01-18T06:40:32.241Z,98910.94
2023-01-18T06:43:00.332Z,98902.22
2023-01-18T06:45:29.311Z,98900.84
2023-01-18T06:47:57.189Z,98902.91
2023-01-18T06:50:24.624Z,98911.03
2023-01-18T06:52:52.062Z,98909.91
2023-01-18T06:55:21.139Z,98905.41
2023-01-18T06:57:48.721Z,98914.75
2023-01-18T07:00:17.717Z,98903.38
2023-01-18T07:02:45.158Z,98901.78
2023-01-18T07:05:12.572Z,98904.97
2023-01-18T07:07:40.008Z,98921.84
2023-01-18T07:10:08.427Z,98921.63
2023-01-18T07:12:37.175Z,98921.22
2023-01-18T07:15:20.507Z,98916.00
2023-01-18T07:17:50.401Z,98925.19
2023-01-18T07:20:18.138Z,98926.13
2023-01-18T07:22:45.631Z,98927.38
2023-01-18T07:25:13.836Z,98933.72
2023-01-18T07:27:43.568Z,98933.00
2023-01-18T07:30:12.940Z,98933.19
2023-01-18T07:32:40.471Z,98938.00
2023-01-18T07:35:08.455Z,98938.84
2023-01-18T07:37:36.537Z,98940.00
2023-01-18T07:40:04.170Z,98944.31
2023-01-18T07:42:31.545Z,98945.69
2023-01-18T07:45:00.256Z,98943.63
2023-01-18T07:47:27.730Z,98948.84
2023-01-18T07:49:55.367Z,98948.69
2023-01-18T07:52:22.758Z,98946.22
2023-01-18T07:54:50.461Z,98934.19
2023-01-18T07:57:17.859Z,98947.06
2023-01-18T07:59:45.299Z,98946.69
2023-01-18T08:02:14.500Z,98942.91
2023-01-18T08:04:42.033Z,98944.47
2023-01-18T08:07:10.538Z,98930.09
2023-01-18T08:09:37.973Z,98932.53
2023-01-18T08:12:07.848Z,98939.06
2023-01-18T08:14:35.256Z,98935.47
2023-01-18T08:17:02.728Z,98940.59
2023-01-18T08:19:31.466Z,98943.88
2023-01-18T08:21:58.915Z,98943.88
2023-01-18T08:24:26.366Z,98942.78
2023-01-18T08:26:53.746Z,98936.78
2023-01-18T08:29:21.312Z,98942.19
2023-01-18T08:31:52.354Z,98947.41
2023-01-18T08:34:19.947Z,98948.16
2023-01-18T08:36:50.962Z,98945.84
2023-01-18T08:39:18.377Z,98942.97
2023-01-18T08:41:46.698Z,98950.78
2023-01-18T08:44:14.180Z,98949.13
2023-01-18T08:46:41.636Z,98950.72
2023-01-18T08:49:09.821Z,98954.81
2023-01-18T08:51:37.376Z,98952.34
2023-01-18T08:54:06.532Z,98951.81
2023-01-18T08:56:33.970Z,98960.53
2023-01-18T08:59:02.504Z,98960.75
2023-01-18T09:01:30.114Z,98974.56
2023-01-18T09:03:58.635Z,98966.66
2023-01-18T09:06:31.813Z,98960.72
2023-01-18T09:08:59.424Z,98962.88
2023-01-18T09:11:28.273Z,98967.69
2023-01-18T09:14:01.328Z,98972.47
2023-01-18T09:16:30.114Z,98968.38
2023-01-18T09:18:58.352Z,98976.09
2023-01-18T09:21:27.880Z,98977.34
2023-01-18T09:23:55.356Z,98976.66
2023-01-18T09:26:22.761Z,98989.88
2023-01-18T09:28:53.201Z,98994.31
2023-01-18T09:31:22.246Z,98991.91
2023-01-18T09:33:53.593Z,99003.41
2023-01-18T09:36:26.277Z,98988.94
2023-01-18T09:38:54.480Z,98996.81
2023-01-18T09:41:31.013Z,99002.16
2023-01-18T09:44:06.333Z,98987.28
2023-01-18T09:46:36.471Z,98988.13
2023-01-18T09:49:06.918Z,98998.50
2023-01-18T09:51:44.439Z,98999.63
2023-01-18T09:54:23.252Z,98998.84
2023-01-18T09:56:58.317Z,98995.94
2023-01-18T09:59:33.252Z,99007.94
2023-01-18T10:02:03.993Z,99000.84
2023-01-18T10:04:36.789Z,99011.56
2023-01-18T10:07:08.199Z,99006.84
2023-01-18T10:09:42.662Z,99008.47
2023-01-18T10:12:18.780Z,99012.38
2023-01-18T10:14:51.168Z,98999.84
2023-01-18T10:17:22.889Z,99005.88
2023-01-18T10:19:50.776Z,99001.25
2023-01-18T10:22:22.843Z,98989.22
2023-01-18T10:25:00.728Z,98992.09
2023-01-18T10:27:40.519Z,98993.97
2023-01-18T10:30:36.726Z,99000.69
2023-01-18T10:33:17.661Z,98996.66
2023-01-18T10:35:49.918Z,99004.19
2023-01-18T10:38:21.451Z,98999.06
2023-01-18T10:40:52.342Z,98999.81
2023-01-18T10:43:25.104Z,99001.63
2023-01-18T10:45:54.550Z,99007.38
2023-01-18T10:48:28.996Z,99004.94
2023-01-18T10:50:58.659Z,99009.59
2023-01-18T10:53:30.954Z,99010.28
2023-01-18T10:56:02.944Z,99006.72
2023-01-18T10:58:33.755Z,99007.00
2023-01-18T11:01:03.571Z,99007.94
2023-01-18T11:03:37.625Z,99003.91
2023-01-18T11:06:08.088Z,99006.03
2023-01-18T11:08:36.901Z,99014.31
2023-01-18T11:11:06.381Z,99018.00
2023-01-18T11:13:42.137Z,99017.97
2023-01-18T11:16:17.685Z,99011.88
2023-01-18T11:18:59.439Z,99014.69
2023-01-18T11:21:30.864Z,99011.22
2023-01-18T11:23:59.230Z,99010.09
2023-01-18T11:26:29.548Z,99010.63
2023-01-18T11:29:00.865Z,99016.78
2023-01-18T11:31:32.591Z,99014.47
2023-01-18T11:34:03.000Z,99020.84
2023-01-18T11:36:39.028Z,99022.97
2023-01-18T11:39:29.514Z,99029.84
2023-01-18T11:42:25.457Z,99026.34
2023-01-18T11:45:13.378Z,99036.25
2023-01-18T11:47:57.034Z,99030.53
2023-01-18T11:50:31.429Z,99036.50
2023-01-18T11:53:05.648Z,99032.97
2023-01-18T11:55:37.869Z,99026.19
2023-01-18T11:58:16.936Z,99033.81
2023-01-18T12:00:54.610Z,99042.16
2023-01-18T12:03:41.022Z,99038.25
2023-01-18T12:06:15.533Z,99041.44
2023-01-18T12:08:57.467Z,99045.59
2023-01-18T12:11:38.344Z,99042.84
2023-01-18T12:14:16.565Z,99049.06
2023-01-18T12:16:59.885Z,99060.00
2023-01-18T12:19:39.144Z,99060.50
2023-01-18T12:22:26.884Z,99062.72
2023-01-18T12:25:06.280Z,99056.09
2023-01-18T12:27:41.187Z,99067.75
2023-01-18T12:30:23.529Z,99064.06
2023-01-18T12:33:06.688Z,99062.75
2023-01-18T12:35:58.674Z,99059.53
2023-01-18T12:38:29.270Z,99064.47
2023-01-18T12:41:13.627Z,99069.56
2023-01-18T12:43:52.287Z,99069.75
2023-01-18T12:46:28.492Z,99069.88
2023-01-18T12:48:58.883Z,99072.41
2023-01-18T12:51:33.415Z,99080.13
2023-01-18T12:54:04.587Z,99081.69
2023-01-18T12:56:36.461Z,99087.59
2023-01-18T12:59:08.062Z,99094.44
2023-01-18T13:01:43.565Z,99086.94
2023-01-18T13:04:17.913Z,99099.47
2023-01-18T13:06:50.069Z,99098.38
2023-01-18T13:09:27.606Z,99102.59
2023-01-18T13:11:58.409Z,99116.13
2023-01-18T13:14:33.501Z,99119.69
2023-01-18T13:17:08.778Z,99123.78
2023-01-18T13:19:42.917Z,99126.00
2023-01-18T13:22:23.402Z,99127.34
2023-01-18T13:25:08.896Z,99140.75
2023-01-18T13:27:37.814Z,99138.66
2023-01-18T13:30:16.661Z,99139.69
2023-01-18T13:32:45.570Z,99147.16
2023-01-18T13:35:21.016Z,99155.38
2023-01-18T13:37:52.922Z,99147.56
2023-01-18T13:40:38.616Z,99154.41
2023-01-18T13:43:07.352Z,99161.19
2023-01-18T13:46:03.049Z,99161.56
2023-01-18T13:48:46.847Z,99162.78
2023-01-18T13:51:52.851Z,99175.50
2023-01-18T13:54:58.823Z,99176.66
2023-01-18T13:57:26.761Z,99181.78
2023-01-18T13:59:54.294Z,99186.59
2023-01-18T14:02:27.608Z,99187.53
2023-01-18T14:05:05.473Z,99196.28
2023-01-18T14:07:41.337Z,99194.13
2023-01-18T14:10:26.310Z,99191.09
2023-01-18T14:12:55.624Z,99193.75
2023-01-18T14:15:38.701Z,99195.69
2023-01-18T14:18:17.767Z,99203.22
2023-01-18T14:20:54.337Z,99198.88
2023-01-18T14:23:53.698Z,99211.66
2023-01-18T14:26:24.625Z,99214.19
2023-01-18T14:28:56.820Z,99232.78
2023-01-18T14:31:30.239Z,99227.31
2023-01-18T14:33:57.727Z,99234.81
2023-01-18T14:36:27.975Z,99241.28
2023-01-18T14:39:12.776Z,99241.50
2023-01-18T14:41:44.176Z,99240.72
2023-01-18T14:44:18.612Z,99248.06
2023-01-18T14:46:51.161Z,99252.38
2023-01-18T14:49:24.844Z,99260.19
2023-01-18T14:51:53.841Z,99266.25
2023-01-18T14:54:24.279Z,99271.75
2023-01-18T14:57:01.471Z,99281.22
2023-01-18T14:59:31.130Z,99278.72
2023-01-18T15:02:00.854Z,99283.91
2023-01-18T15:04:29.910Z,99286.44
2023-01-18T15:07:00.383Z,99288.88
2023-01-18T15:09:31.510Z,99291.25
2023-01-18T15:12:04.162Z,99291.22
2023-01-18T15:14:34.388Z,99297.22
2023-01-18T15:17:06.847Z,99297.47
2023-01-18T15:19:39.529Z,99305.44
2023-01-18T15:22:08.617Z,99306.59
2023-01-18T15:24:39.555Z,99314.13
2023-01-18T15:27:13.701Z,99321.13
2023-01-18T15:29:41.160Z,99322.56
2023-01-18T15:32:14.331Z,99334.16
2023-01-18T15:34:45.922Z,99333.41
2023-01-18T15:37:17.251Z,99335.16
2023-01-18T15:39:56.626Z,99345.44
2023-01-18T15:42:29.375Z,99350.31
2023-01-18T15:44:59.357Z,99350.44
2023-01-18T15:47:29.611Z,99356.94
2023-01-18T15:49:59.787Z,99363.88
2023-01-18T15:52:46.596Z,99359.59
2023-01-18T15:55:23.983Z,99362.88
2023-01-18T15:57:58.946Z,99360.88
2023-01-18T16:00:34.694Z,99369.50
2023-01-18T16:03:03.765Z,99381.00
2023-01-18T16:05:32.683Z,99381.13
2023-01-18T16:08:19.064Z,99378.78
2023-01-18T16:10:54.802Z,99389.59
2023-01-18T16:13:32.173Z,99389.38
2023-01-18T16:16:16.339Z,99390.63
2023-01-18T16:18:47.414Z,99399.16
2023-01-18T16:21:22.003Z,99394.41
2023-01-18T16:23:52.204Z,99401.72
2023-01-18T16:26:23.186Z,99407.94
2023-01-18T16:28:53.497Z,99410.63
2023-01-18T16:31:24.606Z,99417.28
2023-01-18T16:33:52.171Z,99425.03
2023-01-18T16:36:21.091Z,99424.47
2023-01-18T16:38:48.485Z,99427.81
2023-01-18T16:41:16.972Z,99439.38
2023-01-18T16:43:44.968Z,99435.94
2023-01-18T16:46:13.832Z,99432.91
2023-01-18T16:48:41.401Z,99433.28
2023-01-18T16:51:16.002Z,99439.34
2023-01-18T16:53:43.698Z,99440.66
2023-01-18T16:56:15.675Z,99451.41
2023-01-18T16:58:43.596Z,99459.22
2023-01-18T17:01:15.927Z,99450.78
2023-01-18T17:03:43.814Z,99459.53
2023-01-18T17:06:17.750Z,99475.44
2023-01-18T17:08:45.280Z,99471.31
2023-01-18T17:11:13.448Z,99477.88
2023-01-18T17:13:41.022Z,99472.69
2023-01-18T17:16:14.782Z,99478.84
2023-01-18T17:18:44.037Z,99478.50
2023-01-18T17:21:12.533Z,99485.09
2023-01-18T17:23:40.932Z,99478.09
2023-01-18T17:26:08.767Z,99485.00
2023-01-18T17:28:36.166Z,99488.16
2023-01-18T17:31:03.764Z,99498.66
2023-01-18T17:33:32.645Z,99492.63
2023-01-18T17:36:01.438Z,99507.94
2023-01-18T17:40:58.382Z,99508.59
2023-01-18T17:43:33.687Z,99518.84
2023-01-18T17:46:03.822Z,99515.13
2023-01-18T17:48:31.353Z,99525.91
2023-01-18T17:50:59.277Z,99524.22
2023-01-18T17:53:28.169Z,99527.97
2023-01-18T17:55:55.613Z,99538.03
2023-01-18T17:58:23.416Z,99538.50
2023-01-18T18:00:51.324Z,99541.47
2023-01-18T18:03:20.124Z,99547.47
2023-01-18T18:05:47.678Z,99551.59
2023-01-18T18:08:15.213Z,99551.63
2023-01-18T18:10:44.433Z,99559.00
2023-01-18T18:13:11.882Z,99556.78
2023-01-18T18:15:39.360Z,99545.28
2023-01-18T18:18:12.271Z,99563.00
2023-01-18T18:20:49.792Z,99553.81
2023-01-18T18:23:17.173Z,99564.84
2023-01-18T18:25:48.231Z,99565.66
2023-01-18T18:28:15.653Z,99560.44
2023-01-18T18:30:46.609Z,99569.69
2023-01-18T18:33:13.988Z,99571.66
2023-01-18T18:35:41.765Z,99571.53
2023-01-18T18:38:10.034Z,99575.88
2023-01-18T18:40:37.531Z,99572.50
2023-01-18T18:43:06.629Z,99579.13
2023-01-18T18:45:35.019Z,99579.94
2023-01-18T18:48:02.533Z,99584.94
2023-01-18T18:50:30.663Z,99584.41
2023-01-18T18:52:59.267Z,99596.09
2023-01-18T18:55:26.821Z,99592.75
2023-01-18T18:57:54.296Z,99591.47
2023-01-18T19:00:24.552Z,99597.56
2023-01-18T19:02:52.269Z,99599.16
2023-01-18T19:05:20.153Z,99601.00
2023-01-18T19:07:51.122Z,99609.69
2023-01-18T19:10:19.629Z,99609.91
2023-01-18T19:12:47.105Z,99615.09
2023-01-18T19:15:14.666Z,99616.84
2023-01-18T19:17:43.388Z,99623.44
2023-01-18T19:20:13.851Z,99618.28
2023-01-18T19:22:41.485Z,99620.00
2023-01-18T19:25:09.891Z,99622.44
2023-01-18T19:27:37.276Z,99620.00
2023-01-18T19:30:10.521Z,99625.22
2023-01-18T19:32:37.927Z,99628.53
2023-01-18T19:35:07.585Z,99649.41
2023-01-18T19:37:35.045Z,99643.50
2023-01-18T19:40:02.461Z,99643.56
2023-01-18T19:42:30.023Z,99647.03
2023-01-18T19:44:59.396Z,99641.00
2023-01-18T19:47:26.950Z,99645.28
2023-01-18T19:49:55.708Z,99638.44
2023-01-18T19:52:25.119Z,99644.16
2023-01-18T19:54:52.747Z,99642.44
2023-01-18T19:57:20.146Z,99645.03
2023-01-18T19:59:47.572Z,99645.69
2023-01-18T20:02:15.126Z,99652.44
2023-01-18T20:04:43.403Z,99659.19
2023-01-18T20:07:12.769Z,99656.91
2023-01-18T20:09:43.372Z,99658.66
2023-01-18T20:12:12.478Z,99663.44
2023-01-18T20:14:41.848Z,99666.31
2023-01-18T20:17:09.981Z,99662.97
2023-01-18T20:19:37.441Z,99674.22
2023-01-18T20:22:04.902Z,99671.50
2023-01-18T20:24:32.344Z,99680.13
2023-01-18T20:27:14.994Z,99675.94
2023-01-18T20:29:43.142Z,99680.22
2023-01-18T20:32:16.026Z,99675.97
2023-01-18T20:34:46.445Z,99686.91
2023-01-18T20:37:14.627Z,99689.88
2023-01-18T20:39:42.180Z,99684.13
2023-01-18T20:42:11.037Z,99692.34
2023-01-18T20:44:38.588Z,99696.00
2023-01-18T20:47:06.368Z,99697.25
2023-01-18T20:49:38.453Z,99693.22
2023-01-18T20:52:06.614Z,99693.31
2023-01-18T20:54:35.690Z,99692.34
2023-01-18T20:57:03.887Z,99698.41
2023-01-18T20:59:32.729Z,99695.75
2023-01-18T21:02:00.401Z,99700.78
2023-01-18T21:04:28.010Z,99706.00
2023-01-18T21:06:57.163Z,99707.63
2023-01-18T21:09:24.830Z,99712.91
2023-01-18T21:11:52.244Z,99709.25
2023-01-18T21:14:19.756Z,99704.91
2023-01-18T21:16:48.841Z,99711.03
2023-01-18T21:19:16.478Z,99722.00
2023-01-18T21:21:44.626Z,99727.72
2023-01-18T21:24:12.045Z,99730.25
2023-01-18T21:26:39.608Z,99733.94
2023-01-18T21:29:07.124Z,99737.47
2023-01-18T21:31:34.591Z,99742.03
2023-01-18T21:34:03.363Z,99739.22
2023-01-18T21:36:30.956Z,99742.47
2023-01-18T21:38:58.407Z,99741.13
2023-01-18T21:41:43.371Z,99744.09
2023-01-18T21:44:29.940Z,99747.22
2023-01-18T21:46:58.715Z,99747.88
2023-01-18T21:50:15.878Z,99752.53
2023-01-18T21:52:50.355Z,99759.28
2023-01-18T21:55:18.574Z,99759.50
2023-01-18T21:58:05.968Z,99763.09
2023-01-18T22:00:33.370Z,99759.50
2023-01-18T22:03:00.755Z,99760.72
2023-01-18T22:05:29.490Z,99764.13
2023-01-18T22:07:57.029Z,99769.63
2023-01-18T22:10:24.716Z,99769.41
2023-01-18T22:12:52.224Z,99769.41
2023-01-18T22:15:21.854Z,99767.81
2023-01-18T22:17:49.414Z,99767.34
2023-01-18T22:20:17.741Z,99775.03
2023-01-18T22:22:46.475Z,99777.59
2023-01-18T22:25:13.938Z,99783.41
2023-01-18T22:27:41.402Z,99783.53
2023-01-18T22:30:10.152Z,99781.88
2023-01-18T22:32:37.615Z,99784.97
2023-01-18T22:35:05.411Z,99798.09
2023-01-18T22:37:32.849Z,99795.56
2023-01-18T22:40:02.202Z,99797.94
2023-01-18T22:42:30.098Z,99803.69
2023-01-18T22:44:57.516Z,99808.28
2023-01-18T22:47:24.958Z,99804.81
2023-01-18T22:49:52.356Z,99801.38
2023-01-18T22:52:19.755Z,99809.41
2023-01-18T22:54:47.216Z,99820.72
2023-01-18T22:57:16.027Z,99816.63
2023-01-18T22:59:43.421Z,99820.53
2023-01-18T23:02:10.847Z,99817.44
2023-01-18T23:04:38.316Z,99813.38
2023-01-18T23:07:05.737Z,99806.00
2023-01-18T23:09:33.167Z,99811.41
2023-01-18T23:12:00.600Z,99816.91
2023-01-18T23:14:47.139Z,99818.91
2023-01-18T23:17:31.984Z,99819.22
2023-01-18T23:19:59.388Z,99808.63
2023-01-18T23:22:27.389Z,99812.25
2023-01-18T23:24:54.821Z,99808.91
2023-01-18T23:27:22.261Z,99815.00
2023-01-18T23:29:57.277Z,99824.59
2023-01-18T23:32:27.955Z,99818.72
2023-01-18T23:34:55.625Z,99814.19
2023-01-18T23:37:23.511Z,99819.91
2023-01-18T23:40:08.798Z,99817.16
2023-01-18T23:42:53.439Z,99822.44
2023-01-18T23:45:39.985Z,99819.72
2023-01-18T23:48:26.958Z,99816.81
2023-01-18T23:51:11.707Z,99804.31
2023-01-18T23:53:56.519Z,99822.31
2023-01-18T23:56:24.074Z,99824.31
2023-01-18T23:58:51.495Z,99828.28
